sensor_id;sensor_type;location;lat;lon;timestamp;P1;durP1;ratioP1;P2;durP2;ratioP2
74371;SDS011;62885;51.374;6.170;2023-07-13T00:00:54;3.72;;;1.33;;
74371;SDS011;62885;51.374;6.170;2023-07-13T00:03:21;6.18;;;1.00;;
74371;SDS011;62885;51.374;6.170;2023-07-13T00:05:46;3.80;;;0.98;;
74371;SDS011;62885;51.374;6.170;2023-07-13T00:08:12;7.35;;;1.20;;
74371;SDS011;62885;51.374;6.170;2023-07-13T00:10:39;7.32;;;1.30;;
74371;SDS011;62885;51.374;6.170;2023-07-13T00:13:06;6.25;;;1.40;;
74371;SDS011;62885;51.374;6.170;2023-07-13T00:15:31;3.95;;;1.35;;
74371;SDS011;62885;51.374;6.170;2023-07-13T00:17:57;4.85;;;1.10;;
74371;SDS011;62885;51.374;6.170;2023-07-13T00:20:23;3.25;;;1.17;;
74371;SDS011;62885;51.374;6.170;2023-07-13T00:22:50;3.80;;;1.13;;
74371;SDS011;62885;51.374;6.170;2023-07-13T00:25:18;3.45;;;1.15;;
74371;SDS011;62885;51.374;6.170;2023-07-13T00:27:44;7.07;;;1.42;;
74371;SDS011;62885;51.374;6.170;2023-07-13T00:30:13;4.15;;;1.10;;
74371;SDS011;62885;51.374;6.170;2023-07-13T00:32:39;3.40;;;1.15;;
74371;SDS011;62885;51.374;6.170;2023-07-13T00:35:04;5.05;;;1.23;;
74371;SDS011;62885;51.374;6.170;2023-07-13T00:37:30;4.57;;;1.20;;
74371;SDS011;62885;51.374;6.170;2023-07-13T00:39:56;4.32;;;1.20;;
74371;SDS011;62885;51.374;6.170;2023-07-13T00:42:22;5.72;;;1.23;;
74371;SDS011;62885;51.374;6.170;2023-07-13T00:47:46;7.65;;;1.42;;
74371;SDS011;62885;51.374;6.170;2023-07-13T00:50:12;4.93;;;1.33;;
74371;SDS011;62885;51.374;6.170;2023-07-13T00:52:41;3.05;;;0.80;;
74371;SDS011;62885;51.374;6.170;2023-07-13T00:55:10;6.13;;;1.10;;
74371;SDS011;62885;51.374;6.170;2023-07-13T00:57:37;3.55;;;0.90;;
74371;SDS011;62885;51.374;6.170;2023-07-13T01:00:04;6.03;;;1.42;;
74371;SDS011;62885;51.374;6.170;2023-07-13T01:02:32;6.50;;;1.33;;
74371;SDS011;62885;51.374;6.170;2023-07-13T01:04:59;4.07;;;1.30;;
74371;SDS011;62885;51.374;6.170;2023-07-13T01:07:24;3.58;;;1.13;;
74371;SDS011;62885;51.374;6.170;2023-07-13T01:09:50;6.30;;;1.20;;
74371;SDS011;62885;51.374;6.170;2023-07-13T01:12:16;4.88;;;1.10;;
74371;SDS011;62885;51.374;6.170;2023-07-13T01:14:41;6.18;;;1.23;;
74371;SDS011;62885;51.374;6.170;2023-07-13T01:17:08;5.78;;;1.20;;
74371;SDS011;62885;51.374;6.170;2023-07-13T01:19:36;2.45;;;1.00;;
74371;SDS011;62885;51.374;6.170;2023-07-13T01:22:14;5.07;;;1.35;;
74371;SDS011;62885;51.374;6.170;2023-07-13T01:24:44;3.80;;;1.17;;
74371;SDS011;62885;51.374;6.170;2023-07-13T01:27:12;2.83;;;1.17;;
74371;SDS011;62885;51.374;6.170;2023-07-13T01:29:40;3.70;;;1.17;;
74371;SDS011;62885;51.374;6.170;2023-07-13T01:32:09;3.10;;;1.05;;
74371;SDS011;62885;51.374;6.170;2023-07-13T01:34:36;5.50;;;1.17;;
74371;SDS011;62885;51.374;6.170;2023-07-13T01:37:02;3.10;;;1.40;;
74371;SDS011;62885;51.374;6.170;2023-07-13T01:39:29;4.90;;;1.05;;
74371;SDS011;62885;51.374;6.170;2023-07-13T01:41:57;7.32;;;1.30;;
74371;SDS011;62885;51.374;6.170;2023-07-13T01:44:22;2.90;;;0.85;;
74371;SDS011;62885;51.374;6.170;2023-07-13T01:46:48;2.60;;;0.95;;
74371;SDS011;62885;51.374;6.170;2023-07-13T01:49:13;3.63;;;1.27;;
74371;SDS011;62885;51.374;6.170;2023-07-13T01:51:39;6.05;;;1.63;;
74371;SDS011;62885;51.374;6.170;2023-07-13T01:54:04;4.50;;;1.15;;
74371;SDS011;62885;51.374;6.170;2023-07-13T01:56:30;4.07;;;1.50;;
74371;SDS011;62885;51.374;6.170;2023-07-13T01:58:55;3.60;;;1.02;;
74371;SDS011;62885;51.374;6.170;2023-07-13T02:01:21;5.60;;;1.05;;
74371;SDS011;62885;51.374;6.170;2023-07-13T02:03:47;4.32;;;1.38;;
74371;SDS011;62885;51.374;6.170;2023-07-13T02:06:12;4.43;;;1.40;;
74371;SDS011;62885;51.374;6.170;2023-07-13T02:08:40;4.53;;;1.42;;
74371;SDS011;62885;51.374;6.170;2023-07-13T02:11:07;5.35;;;1.13;;
74371;SDS011;62885;51.374;6.170;2023-07-13T02:13:33;4.43;;;1.30;;
74371;SDS011;62885;51.374;6.170;2023-07-13T02:15:58;2.85;;;1.20;;
74371;SDS011;62885;51.374;6.170;2023-07-13T02:18:23;9.57;;;1.25;;
74371;SDS011;62885;51.374;6.170;2023-07-13T02:20:49;5.65;;;1.10;;
74371;SDS011;62885;51.374;6.170;2023-07-13T02:23:15;3.90;;;1.30;;
74371;SDS011;62885;51.374;6.170;2023-07-13T02:25:40;7.28;;;1.52;;
74371;SDS011;62885;51.374;6.170;2023-07-13T02:28:06;3.35;;;1.00;;
74371;SDS011;62885;51.374;6.170;2023-07-13T02:30:31;7.32;;;1.40;;
74371;SDS011;62885;51.374;6.170;2023-07-13T02:32:57;4.15;;;1.33;;
74371;SDS011;62885;51.374;6.170;2023-07-13T02:35:22;5.80;;;1.23;;
74371;SDS011;62885;51.374;6.170;2023-07-13T02:37:48;4.00;;;1.30;;
74371;SDS011;62885;51.374;6.170;2023-07-13T02:40:13;6.13;;;1.20;;
74371;SDS011;62885;51.374;6.170;2023-07-13T02:42:39;5.10;;;1.40;;
74371;SDS011;62885;51.374;6.170;2023-07-13T02:45:05;5.25;;;1.52;;
74371;SDS011;62885;51.374;6.170;2023-07-13T02:47:32;3.92;;;1.17;;
74371;SDS011;62885;51.374;6.170;2023-07-13T02:49:58;4.65;;;1.20;;
74371;SDS011;62885;51.374;6.170;2023-07-13T02:52:24;5.13;;;1.40;;
74371;SDS011;62885;51.374;6.170;2023-07-13T02:54:50;3.05;;;1.27;;
74371;SDS011;62885;51.374;6.170;2023-07-13T02:57:15;7.70;;;1.42;;
74371;SDS011;62885;51.374;6.170;2023-07-13T02:59:41;3.90;;;1.33;;
74371;SDS011;62885;51.374;6.170;2023-07-13T03:02:06;4.80;;;1.40;;
74371;SDS011;62885;51.374;6.170;2023-07-13T03:04:32;4.93;;;0.93;;
74371;SDS011;62885;51.374;6.170;2023-07-13T03:06:57;4.22;;;1.42;;
74371;SDS011;62885;51.374;6.170;2023-07-13T03:09:23;3.33;;;1.20;;
74371;SDS011;62885;51.374;6.170;2023-07-13T03:11:52;4.43;;;1.23;;
74371;SDS011;62885;51.374;6.170;2023-07-13T03:14:18;3.30;;;1.40;;
74371;SDS011;62885;51.374;6.170;2023-07-13T03:16:44;8.38;;;1.15;;
74371;SDS011;62885;51.374;6.170;2023-07-13T03:19:09;6.70;;;1.60;;
74371;SDS011;62885;51.374;6.170;2023-07-13T03:21:35;4.95;;;1.42;;
74371;SDS011;62885;51.374;6.170;2023-07-13T03:24:00;4.32;;;1.42;;
74371;SDS011;62885;51.374;6.170;2023-07-13T03:26:26;6.65;;;1.60;;
74371;SDS011;62885;51.374;6.170;2023-07-13T03:28:51;6.20;;;1.35;;
74371;SDS011;62885;51.374;6.170;2023-07-13T03:31:18;5.10;;;1.73;;
74371;SDS011;62885;51.374;6.170;2023-07-13T03:33:45;5.30;;;1.65;;
74371;SDS011;62885;51.374;6.170;2023-07-13T03:36:21;4.85;;;1.60;;
74371;SDS011;62885;51.374;6.170;2023-07-13T03:38:49;4.03;;;1.33;;
74371;SDS011;62885;51.374;6.170;2023-07-13T03:41:17;8.50;;;1.55;;
74371;SDS011;62885;51.374;6.170;2023-07-13T03:43:43;4.60;;;1.50;;
74371;SDS011;62885;51.374;6.170;2023-07-13T03:46:09;6.30;;;1.60;;
74371;SDS011;62885;51.374;6.170;2023-07-13T03:48:35;5.57;;;1.80;;
74371;SDS011;62885;51.374;6.170;2023-07-13T03:51:00;5.82;;;1.35;;
74371;SDS011;62885;51.374;6.170;2023-07-13T03:53:26;5.10;;;1.27;;
74371;SDS011;62885;51.374;6.170;2023-07-13T03:55:51;8.23;;;1.65;;
74371;SDS011;62885;51.374;6.170;2023-07-13T03:58:24;7.68;;;1.65;;
74371;SDS011;62885;51.374;6.170;2023-07-13T04:00:54;5.50;;;1.92;;
74371;SDS011;62885;51.374;6.170;2023-07-13T04:03:20;6.05;;;1.40;;
74371;SDS011;62885;51.374;6.170;2023-07-13T04:05:46;6.15;;;2.08;;
74371;SDS011;62885;51.374;6.170;2023-07-13T04:08:12;4.63;;;1.30;;
74371;SDS011;62885;51.374;6.170;2023-07-13T04:10:37;5.53;;;1.48;;
74371;SDS011;62885;51.374;6.170;2023-07-13T04:13:03;7.60;;;2.05;;
74371;SDS011;62885;51.374;6.170;2023-07-13T04:15:30;10.90;;;1.98;;
74371;SDS011;62885;51.374;6.170;2023-07-13T04:17:56;6.00;;;1.50;;
74371;SDS011;62885;51.374;6.170;2023-07-13T04:20:22;6.43;;;1.50;;
74371;SDS011;62885;51.374;6.170;2023-07-13T04:22:49;4.28;;;1.67;;
74371;SDS011;62885;51.374;6.170;2023-07-13T04:25:14;7.35;;;1.83;;
74371;SDS011;62885;51.374;6.170;2023-07-13T04:27:40;8.05;;;1.98;;
74371;SDS011;62885;51.374;6.170;2023-07-13T04:30:06;7.95;;;1.98;;
74371;SDS011;62885;51.374;6.170;2023-07-13T04:32:32;6.97;;;1.95;;
74371;SDS011;62885;51.374;6.170;2023-07-13T04:34:57;4.35;;;1.58;;
74371;SDS011;62885;51.374;6.170;2023-07-13T04:37:24;8.23;;;1.88;;
74371;SDS011;62885;51.374;6.170;2023-07-13T04:39:50;6.15;;;1.92;;
74371;SDS011;62885;51.374;6.170;2023-07-13T04:42:16;8.98;;;1.90;;
74371;SDS011;62885;51.374;6.170;2023-07-13T04:44:41;6.57;;;2.03;;
74371;SDS011;62885;51.374;6.170;2023-07-13T04:47:07;8.23;;;2.38;;
74371;SDS011;62885;51.374;6.170;2023-07-13T04:49:32;6.85;;;2.20;;
74371;SDS011;62885;51.374;6.170;2023-07-13T04:51:58;5.75;;;1.90;;
74371;SDS011;62885;51.374;6.170;2023-07-13T04:54:23;6.15;;;1.50;;
74371;SDS011;62885;51.374;6.170;2023-07-13T04:56:48;7.68;;;1.90;;
74371;SDS011;62885;51.374;6.170;2023-07-13T04:59:14;5.30;;;1.75;;
74371;SDS011;62885;51.374;6.170;2023-07-13T05:01:39;7.28;;;2.33;;
74371;SDS011;62885;51.374;6.170;2023-07-13T05:04:05;4.40;;;1.83;;
74371;SDS011;62885;51.374;6.170;2023-07-13T05:06:31;7.53;;;2.05;;
74371;SDS011;62885;51.374;6.170;2023-07-13T05:08:57;7.28;;;1.58;;
74371;SDS011;62885;51.374;6.170;2023-07-13T05:11:23;6.95;;;1.70;;
74371;SDS011;62885;51.374;6.170;2023-07-13T05:13:49;6.53;;;2.03;;
74371;SDS011;62885;51.374;6.170;2023-07-13T05:16:14;12.20;;;5.60;;
74371;SDS011;62885;51.374;6.170;2023-07-13T05:18:40;7.30;;;2.92;;
74371;SDS011;62885;51.374;6.170;2023-07-13T05:21:06;9.40;;;2.00;;
74371;SDS011;62885;51.374;6.170;2023-07-13T05:23:34;6.40;;;1.65;;
74371;SDS011;62885;51.374;6.170;2023-07-13T05:26:01;4.50;;;1.50;;
74371;SDS011;62885;51.374;6.170;2023-07-13T05:28:27;3.63;;;1.65;;
74371;SDS011;62885;51.374;6.170;2023-07-13T05:30:53;5.13;;;1.60;;
74371;SDS011;62885;51.374;6.170;2023-07-13T05:33:19;5.60;;;1.80;;
74371;SDS011;62885;51.374;6.170;2023-07-13T05:35:45;7.70;;;1.70;;
74371;SDS011;62885;51.374;6.170;2023-07-13T05:38:11;9.50;;;3.03;;
74371;SDS011;62885;51.374;6.170;2023-07-13T05:40:36;8.15;;;2.22;;
74371;SDS011;62885;51.374;6.170;2023-07-13T05:43:02;5.88;;;1.90;;
74371;SDS011;62885;51.374;6.170;2023-07-13T05:45:28;6.53;;;1.55;;
74371;SDS011;62885;51.374;6.170;2023-07-13T05:47:53;5.90;;;1.95;;
74371;SDS011;62885;51.374;6.170;2023-07-13T05:50:19;9.20;;;2.28;;
74371;SDS011;62885;51.374;6.170;2023-07-13T05:52:44;8.00;;;2.08;;
74371;SDS011;62885;51.374;6.170;2023-07-13T05:55:10;8.35;;;2.10;;
74371;SDS011;62885;51.374;6.170;2023-07-13T05:57:35;9.18;;;2.08;;
74371;SDS011;62885;51.374;6.170;2023-07-13T06:00:00;6.70;;;1.83;;
74371;SDS011;62885;51.374;6.170;2023-07-13T06:02:27;5.35;;;2.00;;
74371;SDS011;62885;51.374;6.170;2023-07-13T06:04:53;8.45;;;2.42;;
74371;SDS011;62885;51.374;6.170;2023-07-13T06:07:18;5.30;;;2.17;;
74371;SDS011;62885;51.374;6.170;2023-07-13T06:09:44;11.23;;;2.50;;
74371;SDS011;62885;51.374;6.170;2023-07-13T06:12:09;8.88;;;2.22;;
74371;SDS011;62885;51.374;6.170;2023-07-13T06:14:35;9.60;;;2.72;;
74371;SDS011;62885;51.374;6.170;2023-07-13T06:17:00;9.32;;;2.55;;
74371;SDS011;62885;51.374;6.170;2023-07-13T06:19:26;8.82;;;2.70;;
74371;SDS011;62885;51.374;6.170;2023-07-13T06:21:51;5.43;;;1.98;;
74371;SDS011;62885;51.374;6.170;2023-07-13T06:24:17;8.45;;;2.58;;
74371;SDS011;62885;51.374;6.170;2023-07-13T06:26:42;6.43;;;2.40;;
74371;SDS011;62885;51.374;6.170;2023-07-13T06:29:08;7.60;;;2.60;;
74371;SDS011;62885;51.374;6.170;2023-07-13T06:31:33;11.95;;;2.50;;
74371;SDS011;62885;51.374;6.170;2023-07-13T06:33:59;8.18;;;2.47;;
74371;SDS011;62885;51.374;6.170;2023-07-13T06:36:24;8.98;;;2.50;;
74371;SDS011;62885;51.374;6.170;2023-07-13T06:38:49;8.48;;;2.33;;
74371;SDS011;62885;51.374;6.170;2023-07-13T06:41:15;10.20;;;3.47;;
74371;SDS011;62885;51.374;6.170;2023-07-13T06:43:41;6.40;;;2.80;;
74371;SDS011;62885;51.374;6.170;2023-07-13T06:46:06;7.50;;;2.88;;
74371;SDS011;62885;51.374;6.170;2023-07-13T06:48:32;10.48;;;3.00;;
74371;SDS011;62885;51.374;6.170;2023-07-13T06:50:57;10.52;;;3.13;;
74371;SDS011;62885;51.374;6.170;2023-07-13T06:53:23;12.43;;;3.30;;
74371;SDS011;62885;51.374;6.170;2023-07-13T06:55:48;10.13;;;2.90;;
74371;SDS011;62885;51.374;6.170;2023-07-13T06:58:15;10.50;;;3.05;;
74371;SDS011;62885;51.374;6.170;2023-07-13T07:00:41;10.23;;;2.65;;
74371;SDS011;62885;51.374;6.170;2023-07-13T07:03:07;8.10;;;3.05;;
74371;SDS011;62885;51.374;6.170;2023-07-13T07:05:32;11.07;;;2.63;;
74371;SDS011;62885;51.374;6.170;2023-07-13T07:07:58;10.23;;;3.03;;
74371;SDS011;62885;51.374;6.170;2023-07-13T07:10:24;8.57;;;2.67;;
74371;SDS011;62885;51.374;6.170;2023-07-13T07:12:50;7.93;;;2.42;;
74371;SDS011;62885;51.374;6.170;2023-07-13T07:15:16;7.93;;;2.60;;
74371;SDS011;62885;51.374;6.170;2023-07-13T07:17:43;6.78;;;2.33;;
74371;SDS011;62885;51.374;6.170;2023-07-13T07:20:08;10.30;;;3.28;;
74371;SDS011;62885;51.374;6.170;2023-07-13T07:22:35;5.93;;;2.45;;
74371;SDS011;62885;51.374;6.170;2023-07-13T07:25:00;8.27;;;2.67;;
74371;SDS011;62885;51.374;6.170;2023-07-13T07:27:26;11.60;;;2.50;;
74371;SDS011;62885;51.374;6.170;2023-07-13T07:29:51;5.85;;;2.92;;
74371;SDS011;62885;51.374;6.170;2023-07-13T07:32:17;12.10;;;3.42;;
74371;SDS011;62885;51.374;6.170;2023-07-13T07:34:44;7.55;;;2.63;;
74371;SDS011;62885;51.374;6.170;2023-07-13T07:37:11;8.32;;;2.60;;
74371;SDS011;62885;51.374;6.170;2023-07-13T07:39:37;9.73;;;3.47;;
74371;SDS011;62885;51.374;6.170;2023-07-13T07:42:03;10.73;;;3.45;;
74371;SDS011;62885;51.374;6.170;2023-07-13T07:44:30;8.05;;;3.08;;
74371;SDS011;62885;51.374;6.170;2023-07-13T07:46:56;8.68;;;3.00;;
74371;SDS011;62885;51.374;6.170;2023-07-13T07:49:22;16.33;;;3.20;;
74371;SDS011;62885;51.374;6.170;2023-07-13T07:51:47;8.18;;;2.78;;
74371;SDS011;62885;51.374;6.170;2023-07-13T07:54:12;8.70;;;3.00;;
74371;SDS011;62885;51.374;6.170;2023-07-13T07:56:39;9.10;;;3.13;;
74371;SDS011;62885;51.374;6.170;2023-07-13T07:59:05;10.55;;;3.92;;
74371;SDS011;62885;51.374;6.170;2023-07-13T08:01:30;9.25;;;2.90;;
74371;SDS011;62885;51.374;6.170;2023-07-13T08:03:56;9.57;;;2.90;;
74371;SDS011;62885;51.374;6.170;2023-07-13T08:06:21;11.43;;;3.90;;
74371;SDS011;62885;51.374;6.170;2023-07-13T08:08:48;9.75;;;3.35;;
74371;SDS011;62885;51.374;6.170;2023-07-13T08:11:13;7.78;;;2.97;;
74371;SDS011;62885;51.374;6.170;2023-07-13T08:13:38;8.98;;;3.13;;
74371;SDS011;62885;51.374;6.170;2023-07-13T08:16:04;9.90;;;3.35;;
74371;SDS011;62885;51.374;6.170;2023-07-13T08:18:30;13.10;;;3.20;;
74371;SDS011;62885;51.374;6.170;2023-07-13T08:20:56;11.10;;;3.28;;
74371;SDS011;62885;51.374;6.170;2023-07-13T08:23:23;9.13;;;3.58;;
74371;SDS011;62885;51.374;6.170;2023-07-13T08:25:50;12.27;;;3.72;;
74371;SDS011;62885;51.374;6.170;2023-07-13T08:28:20;8.20;;;3.03;;
74371;SDS011;62885;51.374;6.170;2023-07-13T08:30:46;10.93;;;3.35;;
74371;SDS011;62885;51.374;6.170;2023-07-13T08:33:14;8.73;;;3.33;;
74371;SDS011;62885;51.374;6.170;2023-07-13T08:35:40;8.70;;;2.88;;
74371;SDS011;62885;51.374;6.170;2023-07-13T08:38:06;9.60;;;3.25;;
74371;SDS011;62885;51.374;6.170;2023-07-13T08:40:31;9.93;;;2.75;;
74371;SDS011;62885;51.374;6.170;2023-07-13T08:42:59;7.03;;;2.50;;
74371;SDS011;62885;51.374;6.170;2023-07-13T08:48:11;11.73;;;3.90;;
74371;SDS011;62885;51.374;6.170;2023-07-13T08:51:00;11.95;;;3.08;;
74371;SDS011;62885;51.374;6.170;2023-07-13T08:53:38;8.95;;;2.92;;
74371;SDS011;62885;51.374;6.170;2023-07-13T08:56:16;11.50;;;3.03;;
74371;SDS011;62885;51.374;6.170;2023-07-13T08:58:45;6.88;;;2.55;;
74371;SDS011;62885;51.374;6.170;2023-07-13T09:06:17;7.85;;;2.90;;
74371;SDS011;62885;51.374;6.170;2023-07-13T09:08:52;9.23;;;3.15;;
74371;SDS011;62885;51.374;6.170;2023-07-13T09:11:34;8.68;;;2.50;;
74371;SDS011;62885;51.374;6.170;2023-07-13T09:16:56;7.03;;;2.55;;
74371;SDS011;62885;51.374;6.170;2023-07-13T09:19:24;10.80;;;2.65;;
74371;SDS011;62885;51.374;6.170;2023-07-13T09:21:54;6.00;;;2.40;;
74371;SDS011;62885;51.374;6.170;2023-07-13T09:27:27;9.32;;;2.40;;
74371;SDS011;62885;51.374;6.170;2023-07-13T09:32:41;11.50;;;2.60;;
74371;SDS011;62885;51.374;6.170;2023-07-13T09:35:12;7.40;;;1.75;;
74371;SDS011;62885;51.374;6.170;2023-07-13T09:37:42;5.80;;;2.03;;
74371;SDS011;62885;51.374;6.170;2023-07-13T09:40:17;7.15;;;2.17;;
74371;SDS011;62885;51.374;6.170;2023-07-13T09:42:51;10.18;;;2.30;;
74371;SDS011;62885;51.374;6.170;2023-07-13T09:45:26;8.23;;;2.50;;
74371;SDS011;62885;51.374;6.170;2023-07-13T09:47:58;14.05;;;2.72;;
74371;SDS011;62885;51.374;6.170;2023-07-13T09:50:31;5.78;;;2.10;;
74371;SDS011;62885;51.374;6.170;2023-07-13T09:52:57;6.97;;;2.47;;
74371;SDS011;62885;51.374;6.170;2023-07-13T09:55:26;8.07;;;2.60;;
74371;SDS011;62885;51.374;6.170;2023-07-13T10:00:36;11.40;;;2.20;;
74371;SDS011;62885;51.374;6.170;2023-07-13T10:03:05;6.70;;;2.30;;
74371;SDS011;62885;51.374;6.170;2023-07-13T10:05:39;6.28;;;2.50;;
74371;SDS011;62885;51.374;6.170;2023-07-13T10:08:15;7.40;;;2.40;;
74371;SDS011;62885;51.374;6.170;2023-07-13T10:11:08;6.20;;;2.30;;
74371;SDS011;62885;51.374;6.170;2023-07-13T10:13:51;8.00;;;2.30;;
74371;SDS011;62885;51.374;6.170;2023-07-13T10:16:20;6.60;;;2.42;;
74371;SDS011;62885;51.374;6.170;2023-07-13T10:21:47;8.93;;;2.30;;
74371;SDS011;62885;51.374;6.170;2023-07-13T10:24:19;7.18;;;2.47;;
74371;SDS011;62885;51.374;6.170;2023-07-13T10:27:12;8.68;;;2.85;;
74371;SDS011;62885;51.374;6.170;2023-07-13T10:29:48;9.35;;;2.45;;
74371;SDS011;62885;51.374;6.170;2023-07-13T10:32:24;5.82;;;2.00;;
74371;SDS011;62885;51.374;6.170;2023-07-13T10:34:50;7.53;;;2.35;;
74371;SDS011;62885;51.374;6.170;2023-07-13T10:37:22;9.05;;;2.10;;
74371;SDS011;62885;51.374;6.170;2023-07-13T10:39:50;6.70;;;2.20;;
74371;SDS011;62885;51.374;6.170;2023-07-13T10:42:31;7.88;;;2.08;;
74371;SDS011;62885;51.374;6.170;2023-07-13T10:47:26;9.98;;;2.55;;
74371;SDS011;62885;51.374;6.170;2023-07-13T10:49:54;4.40;;;1.70;;
74371;SDS011;62885;51.374;6.170;2023-07-13T10:55:38;5.40;;;1.73;;
74371;SDS011;62885;51.374;6.170;2023-07-13T11:00:43;9.57;;;2.00;;
74371;SDS011;62885;51.374;6.170;2023-07-13T11:03:13;7.38;;;1.90;;
74371;SDS011;62885;51.374;6.170;2023-07-13T11:05:42;7.47;;;1.90;;
74371;SDS011;62885;51.374;6.170;2023-07-13T11:18:50;7.70;;;2.53;;
74371;SDS011;62885;51.374;6.170;2023-07-13T11:21:18;4.70;;;1.50;;
74371;SDS011;62885;51.374;6.170;2023-07-13T11:23:53;4.68;;;1.73;;
74371;SDS011;62885;51.374;6.170;2023-07-13T11:27:11;5.47;;;1.38;;
74371;SDS011;62885;51.374;6.170;2023-07-13T11:31:40;5.53;;;1.67;;
74371;SDS011;62885;51.374;6.170;2023-07-13T11:34:11;5.07;;;1.63;;
74371;SDS011;62885;51.374;6.170;2023-07-13T11:36:39;3.42;;;1.50;;
74371;SDS011;62885;51.374;6.170;2023-07-13T11:39:28;4.78;;;1.70;;
74371;SDS011;62885;51.374;6.170;2023-07-13T11:41:56;4.38;;;1.35;;
74371;SDS011;62885;51.374;6.170;2023-07-13T11:44:25;5.68;;;1.58;;
74371;SDS011;62885;51.374;6.170;2023-07-13T11:46:53;3.88;;;1.38;;
74371;SDS011;62885;51.374;6.170;2023-07-13T11:49:21;3.75;;;1.45;;
74371;SDS011;62885;51.374;6.170;2023-07-13T11:51:48;5.72;;;1.73;;
74371;SDS011;62885;51.374;6.170;2023-07-13T11:56:51;6.40;;;2.05;;
74371;SDS011;62885;51.374;6.170;2023-07-13T11:59:18;6.65;;;1.73;;
74371;SDS011;62885;51.374;6.170;2023-07-13T12:01:46;7.20;;;1.70;;
74371;SDS011;62885;51.374;6.170;2023-07-13T12:04:24;3.90;;;1.55;;
74371;SDS011;62885;51.374;6.170;2023-07-13T12:06:54;6.15;;;1.70;;
74371;SDS011;62885;51.374;6.170;2023-07-13T12:09:28;5.07;;;1.83;;
74371;SDS011;62885;51.374;6.170;2023-07-13T12:11:54;5.13;;;1.65;;
74371;SDS011;62885;51.374;6.170;2023-07-13T12:14:22;6.60;;;1.42;;
74371;SDS011;62885;51.374;6.170;2023-07-13T12:16:50;4.20;;;1.65;;
74371;SDS011;62885;51.374;6.170;2023-07-13T12:19:19;4.10;;;1.48;;
74371;SDS011;62885;51.374;6.170;2023-07-13T12:21:47;6.03;;;1.38;;
74371;SDS011;62885;51.374;6.170;2023-07-13T12:24:14;4.18;;;1.42;;
74371;SDS011;62885;51.374;6.170;2023-07-13T12:26:41;5.30;;;1.70;;
74371;SDS011;62885;51.374;6.170;2023-07-13T12:29:07;5.63;;;1.77;;
74371;SDS011;62885;51.374;6.170;2023-07-13T12:34:12;4.65;;;1.45;;
74371;SDS011;62885;51.374;6.170;2023-07-13T12:36:45;9.25;;;3.20;;
74371;SDS011;62885;51.374;6.170;2023-07-13T12:39:28;4.28;;;1.80;;
74371;SDS011;62885;51.374;6.170;2023-07-13T12:42:19;5.65;;;1.80;;
74371;SDS011;62885;51.374;6.170;2023-07-13T12:44:52;6.40;;;1.50;;
74371;SDS011;62885;51.374;6.170;2023-07-13T12:47:19;5.43;;;1.50;;
74371;SDS011;62885;51.374;6.170;2023-07-13T12:49:50;2.25;;;1.15;;
74371;SDS011;62885;51.374;6.170;2023-07-13T12:52:23;6.88;;;1.83;;
74371;SDS011;62885;51.374;6.170;2023-07-13T12:55:04;4.00;;;1.42;;
74371;SDS011;62885;51.374;6.170;2023-07-13T12:57:44;4.07;;;1.52;;
74371;SDS011;62885;51.374;6.170;2023-07-13T13:00:31;3.65;;;1.10;;
74371;SDS011;62885;51.374;6.170;2023-07-13T13:03:01;4.20;;;1.50;;
74371;SDS011;62885;51.374;6.170;2023-07-13T13:05:29;3.88;;;1.73;;
74371;SDS011;62885;51.374;6.170;2023-07-13T13:07:55;6.38;;;1.92;;
74371;SDS011;62885;51.374;6.170;2023-07-13T13:10:22;4.90;;;1.75;;
74371;SDS011;62885;51.374;6.170;2023-07-13T13:12:48;5.03;;;1.80;;
74371;SDS011;62885;51.374;6.170;2023-07-13T13:15:13;5.13;;;1.45;;
74371;SDS011;62885;51.374;6.170;2023-07-13T13:17:39;7.80;;;1.83;;
74371;SDS011;62885;51.374;6.170;2023-07-13T13:20:15;5.68;;;1.60;;
74371;SDS011;62885;51.374;6.170;2023-07-13T13:22:42;6.05;;;1.65;;
74371;SDS011;62885;51.374;6.170;2023-07-13T13:25:11;3.88;;;1.60;;
74371;SDS011;62885;51.374;6.170;2023-07-13T13:27:37;5.68;;;1.70;;
74371;SDS011;62885;51.374;6.170;2023-07-13T13:30:15;11.85;;;1.98;;
74371;SDS011;62885;51.374;6.170;2023-07-13T13:32:43;5.45;;;1.80;;
74371;SDS011;62885;51.374;6.170;2023-07-13T13:35:14;5.10;;;1.75;;
74371;SDS011;62885;51.374;6.170;2023-07-13T13:37:41;8.02;;;1.90;;
74371;SDS011;62885;51.374;6.170;2023-07-13T13:40:17;4.28;;;1.48;;
74371;SDS011;62885;51.374;6.170;2023-07-13T13:42:44;5.20;;;1.55;;
74371;SDS011;62885;51.374;6.170;2023-07-13T13:45:10;4.45;;;1.85;;
74371;SDS011;62885;51.374;6.170;2023-07-13T13:47:37;2.72;;;1.40;;
74371;SDS011;62885;51.374;6.170;2023-07-13T13:50:14;6.45;;;1.52;;
74371;SDS011;62885;51.374;6.170;2023-07-13T13:52:41;6.57;;;1.63;;
74371;SDS011;62885;51.374;6.170;2023-07-13T13:55:16;3.72;;;1.45;;
74371;SDS011;62885;51.374;6.170;2023-07-13T13:57:46;6.05;;;1.35;;
74371;SDS011;62885;51.374;6.170;2023-07-13T14:00:13;5.97;;;2.08;;
74371;SDS011;62885;51.374;6.170;2023-07-13T14:02:40;3.72;;;1.50;;
74371;SDS011;62885;51.374;6.170;2023-07-13T14:05:11;3.20;;;1.42;;
74371;SDS011;62885;51.374;6.170;2023-07-13T14:07:38;7.57;;;1.90;;
74371;SDS011;62885;51.374;6.170;2023-07-13T14:10:16;5.28;;;1.45;;
74371;SDS011;62885;51.374;6.170;2023-07-13T14:12:44;6.80;;;1.90;;
74371;SDS011;62885;51.374;6.170;2023-07-13T14:15:30;5.90;;;2.00;;
74371;SDS011;62885;51.374;6.170;2023-07-13T14:17:56;3.20;;;1.60;;
74371;SDS011;62885;51.374;6.170;2023-07-13T14:20:23;3.20;;;1.90;;
74371;SDS011;62885;51.374;6.170;2023-07-13T14:22:50;5.07;;;1.50;;
74371;SDS011;62885;51.374;6.170;2023-07-13T14:25:17;3.53;;;1.50;;
74371;SDS011;62885;51.374;6.170;2023-07-13T14:27:44;3.00;;;1.25;;
74371;SDS011;62885;51.374;6.170;2023-07-13T14:30:14;3.97;;;1.70;;
74371;SDS011;62885;51.374;6.170;2023-07-13T14:32:41;5.43;;;1.73;;
74371;SDS011;62885;51.374;6.170;2023-07-13T14:35:10;5.88;;;1.77;;
74371;SDS011;62885;51.374;6.170;2023-07-13T14:37:39;5.35;;;1.77;;
74371;SDS011;62885;51.374;6.170;2023-07-13T14:40:13;4.78;;;1.75;;
74371;SDS011;62885;51.374;6.170;2023-07-13T14:42:43;7.85;;;2.10;;
74371;SDS011;62885;51.374;6.170;2023-07-13T14:45:13;5.63;;;2.50;;
74371;SDS011;62885;51.374;6.170;2023-07-13T14:47:40;5.75;;;2.15;;
74371;SDS011;62885;51.374;6.170;2023-07-13T14:50:11;7.05;;;2.80;;
74371;SDS011;62885;51.374;6.170;2023-07-13T14:52:42;6.80;;;2.17;;
74371;SDS011;62885;51.374;6.170;2023-07-13T14:55:17;3.42;;;1.65;;
74371;SDS011;62885;51.374;6.170;2023-07-13T14:57:43;4.07;;;1.75;;
74371;SDS011;62885;51.374;6.170;2023-07-13T15:00:14;4.35;;;1.80;;
74371;SDS011;62885;51.374;6.170;2023-07-13T15:02:41;4.90;;;1.73;;
74371;SDS011;62885;51.374;6.170;2023-07-13T15:05:16;3.50;;;1.75;;
74371;SDS011;62885;51.374;6.170;2023-07-13T15:07:49;5.70;;;2.08;;
74371;SDS011;62885;51.374;6.170;2023-07-13T15:10:17;4.68;;;2.25;;
74371;SDS011;62885;51.374;6.170;2023-07-13T15:12:43;4.65;;;2.58;;
74371;SDS011;62885;51.374;6.170;2023-07-13T15:15:08;4.25;;;1.80;;
74371;SDS011;62885;51.374;6.170;2023-07-13T15:20:03;4.90;;;1.98;;
74371;SDS011;62885;51.374;6.170;2023-07-13T15:22:36;5.47;;;2.20;;
74371;SDS011;62885;51.374;6.170;2023-07-13T15:25:02;5.65;;;2.20;;
74371;SDS011;62885;51.374;6.170;2023-07-13T15:27:28;5.72;;;2.20;;
74371;SDS011;62885;51.374;6.170;2023-07-13T15:29:54;4.43;;;2.05;;
74371;SDS011;62885;51.374;6.170;2023-07-13T15:32:19;6.65;;;2.55;;
74371;SDS011;62885;51.374;6.170;2023-07-13T15:34:45;4.28;;;1.80;;
74371;SDS011;62885;51.374;6.170;2023-07-13T15:37:12;4.93;;;1.67;;
74371;SDS011;62885;51.374;6.170;2023-07-13T15:39:40;3.80;;;1.70;;
74371;SDS011;62885;51.374;6.170;2023-07-13T15:42:07;4.35;;;1.80;;
74371;SDS011;62885;51.374;6.170;2023-07-13T15:44:39;2.55;;;1.23;;